createdAt,value
2023-05-04T00:02:12.987Z,100851.69
2023-05-04T00:04:43.076Z,100846.81
2023-05-04T00:07:11.114Z,100831.34
2023-05-04T00:09:39.494Z,100797.63
2023-05-04T00:12:08.222Z,100838.75
2023-05-04T00:14:37.365Z,100833.25
2023-05-04T00:17:06.850Z,100827.88
2023-05-04T00:19:36.328Z,100846.22
2023-05-04T00:22:04.100Z,100837.19
2023-05-04T00:24:32.248Z,100842.69
2023-05-04T00:27:00.117Z,100811.88
2023-05-04T00:29:28.131Z,100844.59
2023-05-04T00:31:56.418Z,100814.31
2023-05-04T00:34:24.632Z,100819.56
2023-05-04T00:36:52.576Z,100807.84
2023-05-04T00:39:20.540Z,100824.34
2023-05-04T00:41:48.709Z,100831.50
2023-05-04T00:44:16.550Z,100838.50
2023-05-04T00:46:45.118Z,100829.81
2023-05-04T00:49:13.914Z,100818.56
2023-05-04T00:51:41.989Z,100810.66
2023-05-04T00:54:10.206Z,100811.06
2023-05-04T00:56:42.335Z,100797.50
2023-05-04T00:59:10.445Z,100839.41
2023-05-04T01:01:38.295Z,100820.78
2023-05-04T01:04:06.977Z,100832.13
2023-05-04T01:07:00.716Z,100830.41
2023-05-04T01:09:50.319Z,100822.72
2023-05-04T01:12:26.655Z,100777.84
2023-05-04T01:14:56.448Z,100830.22
2023-05-04T01:17:24.496Z,100827.25
2023-05-04T01:19:54.273Z,100793.75
2023-05-04T01:22:22.371Z,100828.78
2023-05-04T01:24:51.233Z,100806.63
2023-05-04T01:27:32.242Z,100829.09
2023-05-04T01:30:15.284Z,100822.31
2023-05-04T01:32:46.287Z,100837.00
2023-05-04T01:35:17.170Z,100828.28
2023-05-04T01:37:47.690Z,100820.41
2023-05-04T01:40:16.142Z,100807.94
2023-05-04T01:42:43.954Z,100845.50
2023-05-04T01:45:13.250Z,100833.53
2023-05-04T01:47:42.588Z,100838.09
2023-05-04T01:50:10.894Z,100841.97
2023-05-04T01:52:39.025Z,100779.91
2023-05-04T01:55:06.820Z,100773.41
2023-05-04T01:57:34.547Z,100840.66
2023-05-04T02:00:02.515Z,100844.50
2023-05-04T02:02:43.947Z,100835.47
2023-05-04T02:05:16.241Z,100796.09
2023-05-04T02:07:43.912Z,100789.41
2023-05-04T02:10:11.873Z,100823.63
2023-05-04T02:12:39.823Z,100825.97
2023-05-04T02:15:08.194Z,100831.84
2023-05-04T02:17:35.969Z,100820.50
2023-05-04T02:20:05.324Z,100841.56
2023-05-04T02:22:33.374Z,100839.81
2023-05-04T02:25:01.103Z,100836.00
2023-05-04T02:27:29.001Z,100832.56
2023-05-04T02:29:58.585Z,100799.94
2023-05-04T02:32:26.847Z,100807.44
2023-05-04T02:34:54.806Z,100824.44
2023-05-04T02:37:22.626Z,100834.78
2023-05-04T02:39:51.597Z,100833.97
2023-05-04T02:42:19.762Z,100840.25
2023-05-04T02:44:47.699Z,100837.22
2023-05-04T02:47:15.511Z,100815.03
2023-05-04T02:49:43.556Z,100834.47
2023-05-04T02:52:11.778Z,100798.03
2023-05-04T02:54:39.639Z,100835.91
2023-05-04T02:57:07.394Z,100831.13
2023-05-04T02:59:35.352Z,100819.78
2023-05-04T03:02:03.097Z,100824.03
2023-05-04T03:04:31.514Z,100779.78
2023-05-04T03:06:59.216Z,100807.34
2023-05-04T03:09:26.932Z,100782.91
2023-05-04T03:11:55.355Z,100809.13
2023-05-04T03:14:23.067Z,100807.84
2023-05-04T03:16:51.504Z,100793.38
2023-05-04T03:19:20.115Z,100812.81
2023-05-04T03:21:48.570Z,100826.69
2023-05-04T03:24:18.257Z,100828.09
2023-05-04T03:26:47.414Z,100818.56
2023-05-04T03:29:15.462Z,100769.78
2023-05-04T03:31:43.263Z,100816.75
2023-05-04T03:34:15.235Z,100817.34
2023-05-04T03:36:42.955Z,100797.13
2023-05-04T03:39:10.844Z,100812.81
2023-05-04T03:41:38.586Z,100827.09
2023-05-04T03:44:06.557Z,100799.75
2023-05-04T03:46:35.977Z,100821.22
2023-05-04T03:49:04.012Z,100825.28
2023-05-04T03:51:31.817Z,100752.53
2023-05-04T03:53:59.517Z,100822.25
2023-05-04T03:56:27.263Z,100819.59
2023-05-04T03:58:55.290Z,100794.06
2023-05-04T04:01:27.083Z,100819.50
2023-05-04T04:03:54.908Z,100818.38
2023-05-04T04:06:23.384Z,100803.59
2023-05-04T04:08:51.211Z,100813.13
2023-05-04T04:11:19.262Z,100829.81
2023-05-04T04:13:46.957Z,100826.28
2023-05-04T04:16:14.730Z,100829.81
2023-05-04T04:18:42.411Z,100825.47
2023-05-04T04:21:10.543Z,100821.13
2023-05-04T04:23:38.468Z,100814.63
2023-05-04T04:26:06.843Z,100771.50
2023-05-04T04:28:34.624Z,100834.78
2023-05-04T04:31:03.488Z,100832.47
2023-05-04T04:33:31.395Z,100808.88
2023-05-04T04:35:59.003Z,100811.50
2023-05-04T04:38:26.914Z,100802.69
2023-05-04T04:40:54.612Z,100800.66
2023-05-04T04:43:22.439Z,100834.22
2023-05-04T04:45:50.089Z,100844.22
2023-05-04T04:48:19.375Z,100834.78
2023-05-04T04:50:47.546Z,100814.44
2023-05-04T04:53:15.184Z,100807.34
2023-05-04T04:55:42.958Z,100807.84
2023-05-04T04:58:10.817Z,100846.47
2023-05-04T05:00:38.394Z,100836.41
2023-05-04T05:03:06.656Z,100840.66
2023-05-04T05:05:34.637Z,100840.84
2023-05-04T05:08:02.682Z,100832.16
2023-05-04T05:10:31.165Z,100830.31
2023-05-04T05:12:58.819Z,100830.31
2023-05-04T05:15:26.648Z,100817.16
2023-05-04T05:17:54.534Z,100834.38
2023-05-04T05:20:23.761Z,100803.00
2023-05-04T05:22:52.308Z,100844.84
2023-05-04T05:25:20.139Z,100855.47
2023-05-04T05:27:47.816Z,100851.41
2023-05-04T05:30:15.998Z,100815.78
2023-05-04T05:32:44.165Z,100828.44
2023-05-04T05:35:12.738Z,100815.78
2023-05-04T05:37:40.764Z,100855.06
2023-05-04T05:40:09.165Z,100871.44
2023-05-04T05:42:37.257Z,100864.84
2023-05-04T05:45:05.978Z,100853.94
2023-05-04T05:47:33.646Z,100865.88
2023-05-04T05:50:01.324Z,100845.13
2023-05-04T05:52:29.270Z,100851.13
2023-05-04T05:54:57.042Z,100853.84
2023-05-04T05:57:24.732Z,100858.72
2023-05-04T05:59:52.353Z,100884.44
2023-05-04T06:02:20.197Z,100858.63
2023-05-04T06:04:48.064Z,100902.69
2023-05-04T06:07:16.094Z,100902.19
2023-05-04T06:09:43.874Z,100859.00
2023-05-04T06:12:13.723Z,100884.84
2023-05-04T06:14:41.387Z,100879.56
2023-05-04T06:17:16.884Z,100889.31
2023-05-04T06:19:46.407Z,100865.78
2023-05-04T06:22:14.994Z,100889.81
2023-05-04T06:24:42.675Z,100914.84
2023-05-04T06:27:10.442Z,100884.84
2023-05-04T06:29:40.493Z,100879.78
2023-05-04T06:32:11.520Z,100905.00
2023-05-04T06:34:39.334Z,100913.84
2023-05-04T06:37:07.150Z,100912.19
2023-05-04T06:39:34.873Z,100886.69
2023-05-04T06:42:03.417Z,100910.38
2023-05-04T06:44:38.251Z,100910.78
2023-05-04T06:47:07.781Z,100889.53
2023-05-04T06:49:35.866Z,100909.19
2023-05-04T06:52:03.967Z,100914.66
2023-05-04T06:54:32.783Z,100915.47
2023-05-04T06:57:02.997Z,100900.03
2023-05-04T06:59:32.116Z,100894.28
2023-05-04T07:02:00.044Z,100923.47
2023-05-04T07:04:28.075Z,100865.69
2023-05-04T07:06:56.176Z,100895.41
2023-05-04T07:09:24.015Z,100908.16
2023-05-04T07:11:51.788Z,100877.94
2023-05-04T07:14:19.462Z,100910.97
2023-05-04T07:16:47.133Z,100891.53
2023-05-04T07:19:14.885Z,100886.47
2023-05-04T07:21:42.987Z,100863.19
2023-05-04T07:24:10.734Z,100854.16
2023-05-04T07:26:38.454Z,100871.88
2023-05-04T07:29:06.148Z,100904.28
2023-05-04T07:31:35.226Z,100896.94
2023-05-04T07:34:03.100Z,100880.00
2023-05-04T07:36:31.017Z,100912.81
2023-05-04T07:38:58.876Z,100932.47
2023-05-04T07:41:26.676Z,100931.06
2023-05-04T07:43:54.346Z,100932.19
2023-05-04T07:46:22.219Z,100913.13
2023-05-04T07:48:49.974Z,100907.97
2023-05-04T07:51:17.723Z,100934.09
2023-05-04T07:53:45.884Z,100929.06
2023-05-04T07:56:14.095Z,100930.53
2023-05-04T07:58:42.168Z,100911.59
2023-05-04T08:01:09.958Z,100946.06
2023-05-04T08:03:38.339Z,100935.13
2023-05-04T08:06:07.875Z,100893.38
2023-05-04T08:08:35.835Z,100942.53
2023-05-04T08:11:18.545Z,100878.78
2023-05-04T08:13:49.052Z,100940.91
2023-05-04T08:16:17.398Z,100946.69
2023-05-04T08:18:45.339Z,100914.06
2023-05-04T08:21:13.450Z,100911.81
2023-05-04T08:23:41.220Z,100940.09
2023-05-04T08:26:09.303Z,100940.91
2023-05-04T08:28:40.192Z,100938.97
2023-05-04T08:31:08.344Z,100915.47
2023-05-04T08:33:36.279Z,100899.44
2023-05-04T08:36:08.367Z,100953.38
2023-05-04T08:38:36.548Z,100941.41
2023-05-04T08:41:05.095Z,100911.59
2023-05-04T08:43:37.014Z,100916.06
2023-05-04T08:46:06.786Z,100940.78
2023-05-04T08:48:35.176Z,100916.38
2023-05-04T08:51:04.412Z,100936.69
2023-05-04T08:53:35.427Z,100891.44
2023-05-04T08:56:09.674Z,100929.34
2023-05-04T08:58:44.032Z,100921.13
2023-05-04T09:01:12.465Z,100910.97
2023-05-04T09:03:41.400Z,100941.84
2023-05-04T09:06:11.738Z,100941.84
2023-05-04T09:08:39.809Z,100932.28
2023-05-04T09:11:08.700Z,100909.97
2023-05-04T09:13:36.803Z,100933.31
2023-05-04T09:16:05.392Z,100917.47
2023-05-04T09:18:40.828Z,100933.53
2023-05-04T09:21:08.691Z,100917.88
2023-05-04T09:23:54.715Z,100957.94
2023-05-04T09:26:30.921Z,100962.31
2023-05-04T09:29:14.186Z,100946.59
2023-05-04T09:31:43.861Z,100957.00
2023-05-04T09:34:11.697Z,100949.75
2023-05-04T09:36:39.747Z,100930.25
2023-05-04T09:39:14.732Z,100955.31
2023-05-04T09:41:43.645Z,100927.22
2023-05-04T09:44:23.126Z,100948.69
2023-05-04T09:46:58.853Z,100916.25
2023-05-04T09:49:34.142Z,100944.03
2023-05-04T09:52:03.533Z,100942.41
2023-05-04T09:54:35.167Z,100947.66
2023-05-04T09:57:12.239Z,100947.66
2023-05-04T09:59:40.798Z,100946.53
2023-05-04T10:02:21.238Z,100939.38
2023-05-04T10:04:54.321Z,100935.09
2023-05-04T10:07:23.395Z,100917.28
2023-05-04T10:09:52.302Z,100924.06
2023-05-04T10:12:20.000Z,100919.06
2023-05-04T10:14:47.766Z,100920.41
2023-05-04T10:17:35.383Z,100905.28
2023-05-04T10:20:09.080Z,100942.97
2023-05-04T10:23:04.859Z,100915.28
2023-05-04T10:26:06.155Z,100950.44
2023-05-04T10:28:39.964Z,100945.47
2023-05-04T10:31:10.218Z,100899.97
2023-05-04T10:33:42.105Z,100943.25
2023-05-04T10:36:11.701Z,100925.63
2023-05-04T10:38:40.600Z,100938.56
2023-05-04T10:41:18.615Z,100931.97
2023-05-04T10:43:53.271Z,100900.50
2023-05-04T10:46:22.817Z,100900.97
2023-05-04T10:48:51.424Z,100930.84
2023-05-04T10:51:24.312Z,100889.53
2023-05-04T10:53:52.982Z,100879.31
2023-05-04T10:56:26.971Z,100909.16
2023-05-04T10:58:55.318Z,100921.81
2023-05-04T11:01:23.436Z,100910.06
2023-05-04T11:03:52.800Z,100890.41
2023-05-04T11:06:24.375Z,100867.31
2023-05-04T11:09:01.249Z,100901.94
2023-05-04T11:11:30.326Z,100891.41
2023-05-04T11:14:00.644Z,100873.19
2023-05-04T11:16:28.508Z,100892.09
2023-05-04T11:19:07.771Z,100886.94
2023-05-04T11:21:35.538Z,100896.53
2023-05-04T11:24:03.544Z,100875.34
2023-05-04T11:26:31.496Z,100849.31
2023-05-04T11:28:59.320Z,100900.78
2023-05-04T11:31:27.242Z,100848.09
2023-05-04T11:33:55.290Z,100904.91
2023-05-04T11:36:23.235Z,100880.97
2023-05-04T11:38:51.485Z,100895.75
2023-05-04T11:41:19.331Z,100874.69
2023-05-04T11:43:47.493Z,100857.66
2023-05-04T11:46:16.737Z,100888.81
2023-05-04T11:48:45.152Z,100861.91
2023-05-04T11:51:13.027Z,100879.28
2023-05-04T11:53:41.874Z,100896.13
2023-05-04T11:56:09.933Z,100857.91
2023-05-04T11:58:38.037Z,100897.91
2023-05-04T12:01:07.198Z,100836.72
2023-05-04T12:03:52.932Z,100865.47
2023-05-04T12:06:32.746Z,100874.09
2023-05-04T12:09:07.225Z,100866.38
2023-05-04T12:11:35.431Z,100881.09
2023-05-04T12:14:06.341Z,100879.03
2023-05-04T12:16:34.598Z,100874.03
2023-05-04T12:19:15.059Z,100845.91
2023-05-04T12:21:56.887Z,100849.00
2023-05-04T12:24:26.937Z,100826.13
2023-05-04T12:26:54.751Z,100865.28
2023-05-04T12:29:22.618Z,100866.72
2023-05-04T12:31:50.699Z,100869.69
2023-05-04T12:34:18.611Z,100865.31
2023-05-04T12:36:46.510Z,100863.22
2023-05-04T12:39:14.419Z,100874.19
2023-05-04T12:41:42.418Z,100856.88
2023-05-04T12:44:11.857Z,100863.03
2023-05-04T12:46:39.728Z,100788.59
2023-05-04T12:49:08.680Z,100825.66
2023-05-04T12:51:36.515Z,100856.56
2023-05-04T12:54:04.428Z,100861.25
2023-05-04T12:56:34.786Z,100847.94
2023-05-04T12:59:04.060Z,100834.34
2023-05-04T13:01:32.002Z,100841.81
2023-05-04T13:03:59.890Z,100844.38
2023-05-04T13:06:27.628Z,100823.03
2023-05-04T13:08:55.431Z,100811.88
2023-05-04T13:11:25.152Z,100859.75
2023-05-04T13:13:53.626Z,100863.31
2023-05-04T13:16:21.680Z,100836.47
2023-05-04T13:18:49.424Z,100847.50
2023-05-04T13:21:17.274Z,100842.81
2023-05-04T13:23:44.956Z,100849.09
2023-05-04T13:26:12.939Z,100823.59
2023-05-04T13:28:40.950Z,100851.84
2023-05-04T13:31:09.833Z,100845.03
2023-05-04T13:33:41.290Z,100820.31
2023-05-04T13:36:09.396Z,100798.00
2023-05-04T13:38:37.600Z,100818.59
2023-05-04T13:41:06.042Z,100816.78
2023-05-04T13:43:33.821Z,100827.13
2023-05-04T13:46:04.752Z,100818.91
2023-05-04T13:48:35.296Z,100825.56
2023-05-04T13:51:04.202Z,100826.66
2023-05-04T13:53:32.205Z,100818.25
2023-05-04T13:55:59.936Z,100823.31
2023-05-04T13:58:27.687Z,100827.97
2023-05-04T14:00:56.458Z,100770.44
2023-05-04T14:03:24.329Z,100795.81
2023-05-04T14:05:55.291Z,100810.72
2023-05-04T14:08:23.107Z,100817.31
2023-05-04T14:10:50.997Z,100749.41
2023-05-04T14:13:18.814Z,100788.59
2023-05-04T14:15:48.332Z,100801.31
2023-05-04T14:18:16.220Z,100775.66
2023-05-04T14:20:44.354Z,100769.97
2023-05-04T14:23:12.063Z,100795.06
2023-05-04T14:25:42.371Z,100813.13
2023-05-04T14:28:10.377Z,100785.00
2023-05-04T14:30:38.151Z,100768.84
2023-05-04T14:33:05.939Z,100778.06
2023-05-04T14:35:34.672Z,100783.59
2023-05-04T14:38:02.394Z,100748.03
2023-05-04T14:40:29.999Z,100779.91
2023-05-04T14:42:59.742Z,100792.00
2023-05-04T14:45:27.574Z,100769.38
2023-05-04T14:47:55.627Z,100746.47
2023-05-04T14:50:23.388Z,100770.53
2023-05-04T14:52:51.131Z,100733.53
2023-05-04T14:55:18.813Z,100736.56
2023-05-04T14:57:46.556Z,100750.00
2023-05-04T15:00:15.112Z,100736.09
2023-05-04T15:02:43.051Z,100766.63
2023-05-04T15:05:12.705Z,100742.03
2023-05-04T15:07:40.698Z,100743.00
2023-05-04T15:10:10.729Z,100781.31
2023-05-04T15:12:39.693Z,100754.00
2023-05-04T15:15:08.992Z,100768.22
2023-05-04T15:17:36.837Z,100760.63
2023-05-04T15:20:05.879Z,100759.81
2023-05-04T15:22:33.830Z,100771.63
2023-05-04T15:25:02.085Z,100765.66
2023-05-04T15:27:29.813Z,100724.34
2023-05-04T15:29:58.784Z,100773.06
2023-05-04T15:32:26.860Z,100736.22
2023-05-04T15:35:04.490Z,100765.94
2023-05-04T15:37:34.397Z,100735.38
2023-05-04T15:40:03.470Z,100724.06
2023-05-04T15:42:31.247Z,100760.44
2023-05-04T15:44:59.038Z,100742.34
2023-05-04T15:47:27.002Z,100737.19
2023-05-04T15:49:54.834Z,100732.97
2023-05-04T15:52:24.013Z,100756.09
2023-05-04T15:54:51.829Z,100740.75
2023-05-04T15:57:19.451Z,100720.81
2023-05-04T15:59:49.627Z,100724.69
2023-05-04T16:02:17.379Z,100718.41
2023-05-04T16:04:45.494Z,100734.09
2023-05-04T16:07:13.127Z,100752.50
2023-05-04T16:09:41.190Z,100759.47
2023-05-04T16:12:09.444Z,100764.03
2023-05-04T16:14:37.453Z,100758.19
2023-05-04T16:17:05.360Z,100756.38
2023-05-04T16:19:33.834Z,100763.34
2023-05-04T16:22:01.710Z,100734.22
2023-05-04T16:24:29.425Z,100729.56
2023-05-04T16:26:57.070Z,100747.53
2023-05-04T16:29:24.874Z,100718.19
2023-05-04T16:31:52.612Z,100748.66
2023-05-04T16:34:20.788Z,100743.50
2023-05-04T16:36:48.528Z,100718.22
2023-05-04T16:39:18.900Z,100726.13
2023-05-04T16:41:48.472Z,100728.22
2023-05-04T16:44:16.153Z,100701.38
2023-05-04T16:46:43.994Z,100725.88
2023-05-04T16:49:14.692Z,100752.88
2023-05-04T16:51:43.548Z,100738.88
2023-05-04T16:54:12.591Z,100742.34
2023-05-04T16:56:40.360Z,100747.53
2023-05-04T16:59:07.993Z,100687.03
2023-05-04T17:01:36.165Z,100751.59
2023-05-04T17:04:04.257Z,100710.81
2023-05-04T17:06:32.065Z,100720.75
2023-05-04T17:09:00.484Z,100753.91
2023-05-04T17:11:28.106Z,100733.56
2023-05-04T17:13:56.257Z,100740.78
2023-05-04T17:16:25.858Z,100733.63
2023-05-04T17:18:53.638Z,100738.97
2023-05-04T17:21:21.418Z,100731.50
2023-05-04T17:23:49.150Z,100696.50
2023-05-04T17:26:17.133Z,100705.06
2023-05-04T17:28:45.761Z,100695.06
2023-05-04T17:31:13.566Z,100740.72
2023-05-04T17:33:41.676Z,100726.63
2023-05-04T17:36:12.281Z,100748.34
2023-05-04T17:38:40.702Z,100736.91
2023-05-04T17:41:10.000Z,100719.25
2023-05-04T17:43:38.029Z,100746.22
2023-05-04T17:46:05.776Z,100721.84
2023-05-04T17:48:33.653Z,100708.84
2023-05-04T17:51:01.418Z,100726.56
2023-05-04T17:53:31.537Z,100759.19
2023-05-04T17:55:59.653Z,100737.38
2023-05-04T17:58:27.564Z,100745.13
2023-05-04T18:00:55.492Z,100753.53
2023-05-04T18:03:23.383Z,100751.56
2023-05-04T18:05:51.274Z,100747.31
2023-05-04T18:08:19.052Z,100758.00
2023-05-04T18:10:48.609Z,100726.91
2023-05-04T18:13:16.525Z,100722.09
2023-05-04T18:15:44.318Z,100751.31
2023-05-04T18:18:12.168Z,100751.19
2023-05-04T18:20:40.015Z,100729.66
2023-05-04T18:23:07.963Z,100772.47
2023-05-04T18:25:37.292Z,100766.19
2023-05-04T18:28:08.190Z,100768.13
2023-05-04T18:30:36.248Z,100748.84
2023-05-04T18:33:04.053Z,100770.84
2023-05-04T18:35:32.072Z,100711.03
2023-05-04T18:37:59.868Z,100754.03
2023-05-04T18:40:27.777Z,100770.03
2023-05-04T18:42:55.730Z,100783.78
2023-05-04T18:45:23.441Z,100795.31
2023-05-04T18:47:51.171Z,100803.31
2023-05-04T18:50:19.158Z,100808.16
2023-05-04T18:52:46.885Z,100768.97
2023-05-04T18:55:15.813Z,100792.28
2023-05-04T18:57:44.354Z,100771.41
2023-05-04T19:00:14.192Z,100765.38
2023-05-04T19:02:42.006Z,100779.44
2023-05-04T19:05:11.723Z,100805.47
2023-05-04T19:07:41.007Z,100771.94
2023-05-04T19:10:09.648Z,100798.44
2023-05-04T19:12:37.564Z,100819.41
2023-05-04T19:15:06.491Z,100807.09
2023-05-04T19:17:34.625Z,100820.69
2023-05-04T19:20:02.564Z,100814.31
2023-05-04T19:22:32.111Z,100819.31
2023-05-04T19:24:59.887Z,100828.72
2023-05-04T19:27:28.023Z,100845.84
2023-05-04T19:29:56.580Z,100825.41
2023-05-04T19:32:25.183Z,100801.63
2023-05-04T19:34:53.335Z,100807.59
2023-05-04T19:37:21.093Z,100826.53
2023-05-04T19:39:48.749Z,100814.00
2023-05-04T19:42:17.041Z,100862.38
2023-05-04T19:44:44.739Z,100849.13
2023-05-04T19:47:12.884Z,100860.13
2023-05-04T19:49:40.623Z,100865.44
2023-05-04T19:52:08.431Z,100873.56
2023-05-04T19:54:38.385Z,100840.16
2023-05-04T19:57:06.159Z,100867.47
2023-05-04T19:59:34.584Z,100833.34
2023-05-04T20:02:02.316Z,100853.41
2023-05-04T20:04:30.067Z,100892.81
2023-05-04T20:06:57.796Z,100894.91
2023-05-04T20:09:25.624Z,100860.22
2023-05-04T20:11:53.290Z,100893.94
2023-05-04T20:14:21.274Z,100867.38
2023-05-04T20:16:49.097Z,100872.06
2023-05-04T20:19:18.208Z,100833.34
2023-05-04T20:21:46.050Z,100838.41
2023-05-04T20:24:13.874Z,100866.88
2023-05-04T20:26:41.750Z,100901.03
2023-05-04T20:29:09.466Z,100909.91
2023-05-04T20:31:37.291Z,100881.19
2023-05-04T20:34:04.946Z,100865.00
2023-05-04T20:36:33.504Z,100886.88
2023-05-04T20:39:03.707Z,100916.34
2023-05-04T20:41:32.494Z,100914.91
2023-05-04T20:44:00.398Z,100920.31
2023-05-04T20:46:28.218Z,100901.63
2023-05-04T20:48:56.963Z,100893.03
2023-05-04T20:51:25.045Z,100906.84
2023-05-04T20:53:53.130Z,100922.25
2023-05-04T20:56:22.130Z,100936.94
2023-05-04T20:58:49.809Z,100938.38
2023-05-04T21:01:17.650Z,100933.53
2023-05-04T21:03:45.598Z,100934.31
2023-05-04T21:06:13.533Z,100925.09
2023-05-04T21:08:41.687Z,100942.31
2023-05-04T21:11:09.537Z,100930.78
2023-05-04T21:13:37.515Z,100948.00
2023-05-04T21:16:05.773Z,100947.16
2023-05-04T21:18:35.037Z,100887.22
2023-05-04T21:21:05.104Z,100901.47
2023-05-04T21:23:32.920Z,100872.81
2023-05-04T21:26:02.650Z,100937.75
2023-05-04T21:28:31.129Z,100932.81
2023-05-04T21:30:59.469Z,100949.97
2023-05-04T21:33:27.649Z,100936.84
2023-05-04T21:35:58.246Z,100945.88
2023-05-04T21:38:26.011Z,100944.59
2023-05-04T21:40:53.766Z,100892.94
2023-05-04T21:43:21.558Z,100941.03
2023-05-04T21:45:49.669Z,100874.91
2023-05-04T21:48:17.418Z,100907.13
2023-05-04T21:50:45.305Z,100932.03
2023-05-04T21:53:13.126Z,100943.59
2023-05-04T21:55:46.951Z,100945.22
2023-05-04T21:58:17.298Z,100910.34
2023-05-04T22:00:45.077Z,100956.16
2023-05-04T22:03:12.922Z,100892.81
2023-05-04T22:05:40.605Z,100922.03
2023-05-04T22:08:08.487Z,100909.88
2023-05-04T22:10:36.817Z,100913.50
2023-05-04T22:13:04.552Z,100913.19
2023-05-04T22:15:42.043Z,100936.31
2023-05-04T22:18:14.780Z,100930.34
2023-05-04T22:20:43.612Z,100928.22
2023-05-04T22:23:11.771Z,100953.94
2023-05-04T22:25:40.028Z,100945.34
2023-05-04T22:28:08.108Z,100942.59
2023-05-04T22:30:36.013Z,100912.63
2023-05-04T22:33:03.841Z,100951.13
2023-05-04T22:35:31.808Z,100936.84
2023-05-04T22:37:59.680Z,100959.25
2023-05-04T22:40:27.677Z,100963.19
2023-05-04T22:42:55.378Z,100963.91
2023-05-04T22:45:23.468Z,100965.84
2023-05-04T22:47:52.313Z,100944.75
2023-05-04T22:50:20.451Z,100943.75
2023-05-04T22:52:48.167Z,100954.97
2023-05-04T22:55:16.358Z,100966.34
2023-05-04T22:57:44.120Z,100964.72
2023-05-04T23:00:12.565Z,100964.72
2023-05-04T23:02:40.450Z,100932.91
2023-05-04T23:05:09.476Z,100900.97
2023-05-04T23:07:37.395Z,100933.31
2023-05-04T23:10:05.893Z,100928.25
2023-05-04T23:12:33.802Z,100964.50
2023-05-04T23:15:01.572Z,100949.91
2023-05-04T23:17:30.619Z,100957.31
2023-05-04T23:19:58.247Z,100918.59
2023-05-04T23:22:26.428Z,100926.94
2023-05-04T23:24:54.159Z,100958.84
2023-05-04T23:27:21.876Z,100962.22
2023-05-04T23:29:49.650Z,100861.84
2023-05-04T23:32:17.382Z,100930.16
2023-05-04T23:34:46.901Z,100949.81
2023-05-04T23:37:14.658Z,100897.28
2023-05-04T23:39:45.142Z,100865.56
2023-05-04T23:42:12.726Z,100950.31
2023-05-04T23:44:40.386Z,100911.63
2023-05-04T23:47:08.297Z,100939.19
2023-05-04T23:49:36.052Z,100928.41
2023-05-04T23:52:03.788Z,100893.75
2023-05-04T23:54:31.954Z,100890.13
2023-05-04T23:56:59.981Z,100902.56
2023-05-04T23:59:27.708Z,100933.31
